sensor_id;sensor_type;location;lat;lon;timestamp;P1;durP1;ratioP1;P2;durP2;ratioP2
21729;SDS011;11027;51.030;13.812;2023-03-23T00:01:45;3.45;;;1.88;;
21729;SDS011;11027;51.030;13.812;2023-03-23T00:04:11;3.20;;;2.17;;
21729;SDS011;11027;51.030;13.812;2023-03-23T00:06:38;4.20;;;1.77;;
21729;SDS011;11027;51.030;13.812;2023-03-23T00:09:04;1.73;;;1.20;;
21729;SDS011;11027;51.030;13.812;2023-03-23T00:11:30;3.55;;;1.50;;
21729;SDS011;11027;51.030;13.812;2023-03-23T00:13:57;2.63;;;1.27;;
21729;SDS011;11027;51.030;13.812;2023-03-23T00:16:26;4.00;;;1.10;;
21729;SDS011;11027;51.030;13.812;2023-03-23T00:18:55;8.10;;;1.30;;
21729;SDS011;11027;51.030;13.812;2023-03-23T00:21:22;2.33;;;1.20;;
21729;SDS011;11027;51.030;13.812;2023-03-23T00:23:50;1.83;;;1.10;;
21729;SDS011;11027;51.030;13.812;2023-03-23T00:26:18;2.22;;;1.10;;
21729;SDS011;11027;51.030;13.812;2023-03-23T00:28:43;1.52;;;1.10;;
21729;SDS011;11027;51.030;13.812;2023-03-23T00:31:11;1.50;;;1.20;;
21729;SDS011;11027;51.030;13.812;2023-03-23T00:33:37;4.45;;;1.30;;
21729;SDS011;11027;51.030;13.812;2023-03-23T00:36:03;1.83;;;1.20;;
21729;SDS011;11027;51.030;13.812;2023-03-23T00:38:29;1.50;;;0.98;;
21729;SDS011;11027;51.030;13.812;2023-03-23T00:40:55;1.58;;;1.13;;
21729;SDS011;11027;51.030;13.812;2023-03-23T00:43:22;1.38;;;1.00;;
21729;SDS011;11027;51.030;13.812;2023-03-23T00:45:49;1.58;;;1.20;;
21729;SDS011;11027;51.030;13.812;2023-03-23T00:48:17;4.07;;;1.50;;
21729;SDS011;11027;51.030;13.812;2023-03-23T00:50:43;2.00;;;1.20;;
21729;SDS011;11027;51.030;13.812;2023-03-23T00:53:08;2.33;;;1.20;;
21729;SDS011;11027;51.030;13.812;2023-03-23T00:55:33;1.10;;;1.00;;
21729;SDS011;11027;51.030;13.812;2023-03-23T00:57:59;3.78;;;1.30;;
21729;SDS011;11027;51.030;13.812;2023-03-23T01:00:24;1.80;;;0.90;;
21729;SDS011;11027;51.030;13.812;2023-03-23T01:02:49;1.35;;;1.00;;
21729;SDS011;11027;51.030;13.812;2023-03-23T01:05:16;2.25;;;0.90;;
21729;SDS011;11027;51.030;13.812;2023-03-23T01:07:42;2.65;;;1.10;;
21729;SDS011;11027;51.030;13.812;2023-03-23T01:10:09;2.97;;;0.90;;
21729;SDS011;11027;51.030;13.812;2023-03-23T01:12:37;3.25;;;1.20;;
21729;SDS011;11027;51.030;13.812;2023-03-23T01:15:03;2.15;;;1.05;;
21729;SDS011;11027;51.030;13.812;2023-03-23T01:17:28;2.70;;;1.10;;
21729;SDS011;11027;51.030;13.812;2023-03-23T01:19:53;2.03;;;1.00;;
21729;SDS011;11027;51.030;13.812;2023-03-23T01:22:18;1.48;;;0.80;;
21729;SDS011;11027;51.030;13.812;2023-03-23T01:24:44;1.58;;;0.90;;
21729;SDS011;11027;51.030;13.812;2023-03-23T01:27:09;2.40;;;1.00;;
21729;SDS011;11027;51.030;13.812;2023-03-23T01:29:35;2.15;;;0.93;;
21729;SDS011;11027;51.030;13.812;2023-03-23T01:32:01;2.72;;;1.05;;
21729;SDS011;11027;51.030;13.812;2023-03-23T01:34:27;1.42;;;0.90;;
21729;SDS011;11027;51.030;13.812;2023-03-23T01:36:52;1.80;;;0.82;;
21729;SDS011;11027;51.030;13.812;2023-03-23T01:39:17;1.08;;;0.80;;
21729;SDS011;11027;51.030;13.812;2023-03-23T01:41:43;2.70;;;0.70;;
21729;SDS011;11027;51.030;13.812;2023-03-23T01:46:56;2.67;;;0.65;;
21729;SDS011;11027;51.030;13.812;2023-03-23T01:49:32;2.42;;;0.68;;
21729;SDS011;11027;51.030;13.812;2023-03-23T01:52:05;1.45;;;0.70;;
21729;SDS011;11027;51.030;13.812;2023-03-23T01:54:34;2.55;;;0.85;;
21729;SDS011;11027;51.030;13.812;2023-03-23T01:57:04;1.40;;;0.82;;
21729;SDS011;11027;51.030;13.812;2023-03-23T01:59:32;3.03;;;0.80;;
21729;SDS011;11027;51.030;13.812;2023-03-23T02:01:59;0.70;;;0.60;;
21729;SDS011;11027;51.030;13.812;2023-03-23T02:04:25;1.17;;;0.70;;
21729;SDS011;11027;51.030;13.812;2023-03-23T02:06:52;1.13;;;0.80;;
21729;SDS011;11027;51.030;13.812;2023-03-23T02:09:19;0.80;;;0.60;;
21729;SDS011;11027;51.030;13.812;2023-03-23T02:11:47;1.48;;;0.70;;
21729;SDS011;11027;51.030;13.812;2023-03-23T02:14:15;1.42;;;0.80;;
21729;SDS011;11027;51.030;13.812;2023-03-23T02:16:55;1.38;;;0.77;;
21729;SDS011;11027;51.030;13.812;2023-03-23T02:19:35;1.40;;;0.60;;
21729;SDS011;11027;51.030;13.812;2023-03-23T02:24:45;1.15;;;0.52;;
21729;SDS011;11027;51.030;13.812;2023-03-23T02:29:51;1.45;;;0.80;;
21729;SDS011;11027;51.030;13.812;2023-03-23T02:32:34;3.47;;;0.70;;
21729;SDS011;11027;51.030;13.812;2023-03-23T02:36:14;2.13;;;0.55;;
21729;SDS011;11027;51.030;13.812;2023-03-23T02:38:16;2.13;;;0.60;;
21729;SDS011;11027;51.030;13.812;2023-03-23T02:40:46;0.88;;;0.60;;
21729;SDS011;11027;51.030;13.812;2023-03-23T02:43:15;2.95;;;0.60;;
21729;SDS011;11027;51.030;13.812;2023-03-23T02:45:45;1.92;;;0.98;;
21729;SDS011;11027;51.030;13.812;2023-03-23T02:48:11;1.65;;;0.63;;
21729;SDS011;11027;51.030;13.812;2023-03-23T02:50:40;1.33;;;0.50;;
21729;SDS011;11027;51.030;13.812;2023-03-23T02:53:10;1.55;;;0.60;;
21729;SDS011;11027;51.030;13.812;2023-03-23T02:55:39;0.57;;;0.50;;
21729;SDS011;11027;51.030;13.812;2023-03-23T02:58:11;1.35;;;0.50;;
21729;SDS011;11027;51.030;13.812;2023-03-23T03:00:37;1.60;;;0.60;;
21729;SDS011;11027;51.030;13.812;2023-03-23T03:03:03;0.60;;;0.50;;
21729;SDS011;11027;51.030;13.812;2023-03-23T03:08:03;1.83;;;0.50;;
21729;SDS011;11027;51.030;13.812;2023-03-23T03:10:54;1.20;;;0.55;;
21729;SDS011;11027;51.030;13.812;2023-03-23T03:18:52;4.32;;;0.75;;
21729;SDS011;11027;51.030;13.812;2023-03-23T03:21:27;3.13;;;0.63;;
21729;SDS011;11027;51.030;13.812;2023-03-23T03:23:55;4.20;;;1.83;;
21729;SDS011;11027;51.030;13.812;2023-03-23T03:26:25;1.63;;;1.00;;
21729;SDS011;11027;51.030;13.812;2023-03-23T03:28:52;2.58;;;0.85;;
21729;SDS011;11027;51.030;13.812;2023-03-23T03:31:20;3.45;;;1.00;;
21729;SDS011;11027;51.030;13.812;2023-03-23T03:33:51;1.50;;;0.80;;
21729;SDS011;11027;51.030;13.812;2023-03-23T03:36:18;1.67;;;0.95;;
21729;SDS011;11027;51.030;13.812;2023-03-23T03:38:47;1.40;;;0.77;;
21729;SDS011;11027;51.030;13.812;2023-03-23T03:41:14;2.92;;;1.25;;
21729;SDS011;11027;51.030;13.812;2023-03-23T03:43:40;3.90;;;1.08;;
21729;SDS011;11027;51.030;13.812;2023-03-23T03:46:05;1.10;;;0.95;;
21729;SDS011;11027;51.030;13.812;2023-03-23T03:48:30;1.42;;;1.10;;
21729;SDS011;11027;51.030;13.812;2023-03-23T03:50:55;1.55;;;1.08;;
21729;SDS011;11027;51.030;13.812;2023-03-23T03:53:22;2.22;;;0.93;;
21729;SDS011;11027;51.030;13.812;2023-03-23T03:55:48;1.80;;;1.20;;
21729;SDS011;11027;51.030;13.812;2023-03-23T03:58:14;4.57;;;1.30;;
21729;SDS011;11027;51.030;13.812;2023-03-23T04:00:39;3.80;;;1.15;;
21729;SDS011;11027;51.030;13.812;2023-03-23T04:03:06;3.05;;;1.10;;
21729;SDS011;11027;51.030;13.812;2023-03-23T04:05:32;4.00;;;1.20;;
21729;SDS011;11027;51.030;13.812;2023-03-23T04:07:58;3.70;;;1.00;;
21729;SDS011;11027;51.030;13.812;2023-03-23T04:10:27;1.55;;;1.10;;
21729;SDS011;11027;51.030;13.812;2023-03-23T04:12:54;3.40;;;1.20;;
21729;SDS011;11027;51.030;13.812;2023-03-23T04:15:19;2.45;;;1.10;;
21729;SDS011;11027;51.030;13.812;2023-03-23T04:17:45;4.68;;;1.30;;
21729;SDS011;11027;51.030;13.812;2023-03-23T04:20:10;3.53;;;1.40;;
21729;SDS011;11027;51.030;13.812;2023-03-23T04:22:54;2.67;;;1.33;;
21729;SDS011;11027;51.030;13.812;2023-03-23T04:25:20;2.80;;;1.30;;
21729;SDS011;11027;51.030;13.812;2023-03-23T04:27:46;2.35;;;1.17;;
21729;SDS011;11027;51.030;13.812;2023-03-23T04:30:17;4.93;;;1.38;;
21729;SDS011;11027;51.030;13.812;2023-03-23T04:32:44;5.20;;;1.67;;
21729;SDS011;11027;51.030;13.812;2023-03-23T04:35:11;2.92;;;1.30;;
21729;SDS011;11027;51.030;13.812;2023-03-23T04:37:38;5.97;;;1.48;;
21729;SDS011;11027;51.030;13.812;2023-03-23T04:40:06;3.65;;;1.50;;
21729;SDS011;11027;51.030;13.812;2023-03-23T04:42:35;3.72;;;1.20;;
21729;SDS011;11027;51.030;13.812;2023-03-23T04:45:02;3.28;;;1.67;;
21729;SDS011;11027;51.030;13.812;2023-03-23T04:47:31;4.72;;;1.33;;
21729;SDS011;11027;51.030;13.812;2023-03-23T04:49:58;4.43;;;1.30;;
21729;SDS011;11027;51.030;13.812;2023-03-23T04:52:27;3.60;;;1.20;;
21729;SDS011;11027;51.030;13.812;2023-03-23T04:54:53;3.13;;;1.38;;
21729;SDS011;11027;51.030;13.812;2023-03-23T04:57:20;3.25;;;1.73;;
21729;SDS011;11027;51.030;13.812;2023-03-23T04:59:46;2.25;;;1.30;;
21729;SDS011;11027;51.030;13.812;2023-03-23T05:02:12;3.20;;;1.63;;
21729;SDS011;11027;51.030;13.812;2023-03-23T05:04:38;2.90;;;1.38;;
21729;SDS011;11027;51.030;13.812;2023-03-23T05:07:05;4.95;;;1.40;;
21729;SDS011;11027;51.030;13.812;2023-03-23T05:09:31;2.67;;;1.50;;
21729;SDS011;11027;51.030;13.812;2023-03-23T05:11:57;5.43;;;1.83;;
21729;SDS011;11027;51.030;13.812;2023-03-23T05:14:24;2.95;;;1.42;;
21729;SDS011;11027;51.030;13.812;2023-03-23T05:16:50;4.88;;;1.50;;
21729;SDS011;11027;51.030;13.812;2023-03-23T05:19:16;5.05;;;1.63;;
21729;SDS011;11027;51.030;13.812;2023-03-23T05:21:42;2.50;;;1.23;;
21729;SDS011;11027;51.030;13.812;2023-03-23T05:24:09;5.72;;;1.42;;
21729;SDS011;11027;51.030;13.812;2023-03-23T05:26:34;2.55;;;1.30;;
21729;SDS011;11027;51.030;13.812;2023-03-23T05:29:00;2.40;;;1.35;;
21729;SDS011;11027;51.030;13.812;2023-03-23T05:31:25;6.53;;;1.50;;
21729;SDS011;11027;51.030;13.812;2023-03-23T05:33:51;5.13;;;1.30;;
21729;SDS011;11027;51.030;13.812;2023-03-23T05:36:17;3.30;;;1.50;;
21729;SDS011;11027;51.030;13.812;2023-03-23T05:38:42;2.63;;;1.40;;
21729;SDS011;11027;51.030;13.812;2023-03-23T05:41:10;3.38;;;1.40;;
21729;SDS011;11027;51.030;13.812;2023-03-23T05:43:36;3.70;;;1.20;;
21729;SDS011;11027;51.030;13.812;2023-03-23T05:46:02;5.07;;;1.42;;
21729;SDS011;11027;51.030;13.812;2023-03-23T05:48:27;4.13;;;1.55;;
21729;SDS011;11027;51.030;13.812;2023-03-23T05:50:53;2.58;;;1.40;;
21729;SDS011;11027;51.030;13.812;2023-03-23T05:53:18;2.67;;;1.20;;
21729;SDS011;11027;51.030;13.812;2023-03-23T05:55:43;2.35;;;1.38;;
21729;SDS011;11027;51.030;13.812;2023-03-23T05:58:09;2.95;;;1.35;;
21729;SDS011;11027;51.030;13.812;2023-03-23T06:00:35;2.13;;;1.50;;
21729;SDS011;11027;51.030;13.812;2023-03-23T06:03:00;4.90;;;1.40;;
21729;SDS011;11027;51.030;13.812;2023-03-23T06:05:26;6.07;;;1.15;;
21729;SDS011;11027;51.030;13.812;2023-03-23T06:07:51;2.88;;;1.50;;
21729;SDS011;11027;51.030;13.812;2023-03-23T06:10:18;3.08;;;1.50;;
21729;SDS011;11027;51.030;13.812;2023-03-23T06:12:43;3.40;;;2.00;;
21729;SDS011;11027;51.030;13.812;2023-03-23T06:15:09;6.30;;;1.63;;
21729;SDS011;11027;51.030;13.812;2023-03-23T06:17:35;4.95;;;1.40;;
21729;SDS011;11027;51.030;13.812;2023-03-23T06:20:02;6.68;;;1.38;;
21729;SDS011;11027;51.030;13.812;2023-03-23T06:22:33;4.65;;;1.60;;
21729;SDS011;11027;51.030;13.812;2023-03-23T06:24:59;1.77;;;1.40;;
21729;SDS011;11027;51.030;13.812;2023-03-23T06:27:24;4.60;;;1.63;;
21729;SDS011;11027;51.030;13.812;2023-03-23T06:29:50;3.28;;;1.40;;
21729;SDS011;11027;51.030;13.812;2023-03-23T06:32:15;4.72;;;1.40;;
21729;SDS011;11027;51.030;13.812;2023-03-23T06:34:41;5.47;;;1.52;;
21729;SDS011;11027;51.030;13.812;2023-03-23T06:37:08;5.40;;;1.30;;
21729;SDS011;11027;51.030;13.812;2023-03-23T06:39:34;2.90;;;1.38;;
21729;SDS011;11027;51.030;13.812;2023-03-23T06:42:00;6.07;;;1.38;;
21729;SDS011;11027;51.030;13.812;2023-03-23T06:44:25;5.25;;;1.30;;
21729;SDS011;11027;51.030;13.812;2023-03-23T06:46:51;4.15;;;1.13;;
21729;SDS011;11027;51.030;13.812;2023-03-23T06:49:16;2.42;;;0.98;;
21729;SDS011;11027;51.030;13.812;2023-03-23T06:51:42;2.92;;;0.90;;
21729;SDS011;11027;51.030;13.812;2023-03-23T06:54:07;1.90;;;0.82;;
21729;SDS011;11027;51.030;13.812;2023-03-23T06:56:33;3.83;;;1.10;;
21729;SDS011;11027;51.030;13.812;2023-03-23T06:58:59;2.60;;;0.93;;
21729;SDS011;11027;51.030;13.812;2023-03-23T07:01:24;2.70;;;0.80;;
21729;SDS011;11027;51.030;13.812;2023-03-23T07:03:49;1.88;;;0.75;;
21729;SDS011;11027;51.030;13.812;2023-03-23T07:06:14;2.58;;;0.80;;
21729;SDS011;11027;51.030;13.812;2023-03-23T07:08:41;1.30;;;0.90;;
21729;SDS011;11027;51.030;13.812;2023-03-23T07:11:06;1.23;;;0.73;;
21729;SDS011;11027;51.030;13.812;2023-03-23T07:13:31;1.02;;;0.90;;
21729;SDS011;11027;51.030;13.812;2023-03-23T07:15:57;1.20;;;0.70;;
21729;SDS011;11027;51.030;13.812;2023-03-23T07:18:23;1.55;;;0.70;;
21729;SDS011;11027;51.030;13.812;2023-03-23T07:20:49;2.05;;;0.73;;
21729;SDS011;11027;51.030;13.812;2023-03-23T07:23:15;0.98;;;0.60;;
21729;SDS011;11027;51.030;13.812;2023-03-23T07:25:42;2.55;;;0.90;;
21729;SDS011;11027;51.030;13.812;2023-03-23T07:28:08;0.75;;;0.73;;
21729;SDS011;11027;51.030;13.812;2023-03-23T07:30:33;2.67;;;0.70;;
21729;SDS011;11027;51.030;13.812;2023-03-23T07:32:59;2.90;;;0.80;;
21729;SDS011;11027;51.030;13.812;2023-03-23T07:35:24;1.88;;;0.80;;
21729;SDS011;11027;51.030;13.812;2023-03-23T07:37:50;1.25;;;0.75;;
21729;SDS011;11027;51.030;13.812;2023-03-23T07:40:17;5.65;;;0.80;;
21729;SDS011;11027;51.030;13.812;2023-03-23T07:42:44;2.28;;;0.70;;
21729;SDS011;11027;51.030;13.812;2023-03-23T07:45:11;1.67;;;0.77;;
21729;SDS011;11027;51.030;13.812;2023-03-23T07:47:37;2.92;;;0.85;;
21729;SDS011;11027;51.030;13.812;2023-03-23T07:50:03;1.15;;;0.70;;
21729;SDS011;11027;51.030;13.812;2023-03-23T07:52:29;2.10;;;1.05;;
21729;SDS011;11027;51.030;13.812;2023-03-23T07:54:55;1.50;;;0.80;;
21729;SDS011;11027;51.030;13.812;2023-03-23T07:57:21;1.83;;;0.80;;
21729;SDS011;11027;51.030;13.812;2023-03-23T07:59:47;3.67;;;0.77;;
21729;SDS011;11027;51.030;13.812;2023-03-23T08:02:12;1.63;;;0.93;;
21729;SDS011;11027;51.030;13.812;2023-03-23T08:04:38;3.83;;;1.00;;
21729;SDS011;11027;51.030;13.812;2023-03-23T08:07:03;0.77;;;0.70;;
21729;SDS011;11027;51.030;13.812;2023-03-23T08:09:32;3.78;;;1.00;;
21729;SDS011;11027;51.030;13.812;2023-03-23T08:11:57;1.60;;;0.90;;
21729;SDS011;11027;51.030;13.812;2023-03-23T08:14:22;1.40;;;0.77;;
21729;SDS011;11027;51.030;13.812;2023-03-23T08:16:51;1.25;;;0.85;;
21729;SDS011;11027;51.030;13.812;2023-03-23T08:19:16;1.75;;;0.90;;
21729;SDS011;11027;51.030;13.812;2023-03-23T08:21:42;2.00;;;0.77;;
21729;SDS011;11027;51.030;13.812;2023-03-23T08:24:07;2.30;;;0.88;;
21729;SDS011;11027;51.030;13.812;2023-03-23T08:26:32;3.00;;;0.90;;
21729;SDS011;11027;51.030;13.812;2023-03-23T08:28:58;1.08;;;0.80;;
21729;SDS011;11027;51.030;13.812;2023-03-23T08:31:23;4.22;;;0.88;;
21729;SDS011;11027;51.030;13.812;2023-03-23T08:33:49;1.67;;;0.60;;
21729;SDS011;11027;51.030;13.812;2023-03-23T08:36:15;2.10;;;0.90;;
21729;SDS011;11027;51.030;13.812;2023-03-23T08:38:40;1.60;;;0.73;;
21729;SDS011;11027;51.030;13.812;2023-03-23T08:41:06;2.20;;;0.80;;
21729;SDS011;11027;51.030;13.812;2023-03-23T08:43:32;1.17;;;0.90;;
21729;SDS011;11027;51.030;13.812;2023-03-23T08:45:59;5.40;;;0.98;;
21729;SDS011;11027;51.030;13.812;2023-03-23T08:48:25;3.50;;;0.60;;
21729;SDS011;11027;51.030;13.812;2023-03-23T08:50:50;1.33;;;0.80;;
21729;SDS011;11027;51.030;13.812;2023-03-23T08:53:17;3.40;;;0.90;;
21729;SDS011;11027;51.030;13.812;2023-03-23T08:55:43;3.90;;;0.95;;
21729;SDS011;11027;51.030;13.812;2023-03-23T08:58:09;1.52;;;0.77;;
21729;SDS011;11027;51.030;13.812;2023-03-23T09:00:34;1.33;;;1.13;;
21729;SDS011;11027;51.030;13.812;2023-03-23T09:02:59;2.55;;;1.00;;
21729;SDS011;11027;51.030;13.812;2023-03-23T09:05:26;4.72;;;0.98;;
21729;SDS011;11027;51.030;13.812;2023-03-23T09:07:54;1.60;;;1.00;;
21729;SDS011;11027;51.030;13.812;2023-03-23T09:10:23;1.92;;;1.30;;
21729;SDS011;11027;51.030;13.812;2023-03-23T09:12:51;1.77;;;1.10;;
21729;SDS011;11027;51.030;13.812;2023-03-23T09:15:17;1.90;;;0.88;;
21729;SDS011;11027;51.030;13.812;2023-03-23T09:17:44;1.77;;;0.75;;
21729;SDS011;11027;51.030;13.812;2023-03-23T09:20:12;2.00;;;1.00;;
21729;SDS011;11027;51.030;13.812;2023-03-23T09:22:42;3.35;;;0.85;;
21729;SDS011;11027;51.030;13.812;2023-03-23T09:25:10;1.45;;;0.80;;
21729;SDS011;11027;51.030;13.812;2023-03-23T09:27:38;2.47;;;0.95;;
21729;SDS011;11027;51.030;13.812;2023-03-23T09:30:05;2.03;;;0.80;;
21729;SDS011;11027;51.030;13.812;2023-03-23T09:32:35;1.23;;;0.85;;
21729;SDS011;11027;51.030;13.812;2023-03-23T09:35:01;4.03;;;1.20;;
21729;SDS011;11027;51.030;13.812;2023-03-23T09:37:28;1.42;;;1.10;;
21729;SDS011;11027;51.030;13.812;2023-03-23T09:39:54;2.20;;;0.90;;
21729;SDS011;11027;51.030;13.812;2023-03-23T09:42:24;1.55;;;0.90;;
21729;SDS011;11027;51.030;13.812;2023-03-23T09:45:02;0.90;;;0.80;;
21729;SDS011;11027;51.030;13.812;2023-03-23T09:47:43;6.35;;;0.80;;
21729;SDS011;11027;51.030;13.812;2023-03-23T09:50:24;2.30;;;1.00;;
21729;SDS011;11027;51.030;13.812;2023-03-23T09:52:58;1.77;;;0.80;;
21729;SDS011;11027;51.030;13.812;2023-03-23T09:55:25;1.75;;;0.80;;
21729;SDS011;11027;51.030;13.812;2023-03-23T09:58:01;2.17;;;1.10;;
21729;SDS011;11027;51.030;13.812;2023-03-23T10:00:39;1.98;;;1.00;;
21729;SDS011;11027;51.030;13.812;2023-03-23T10:03:13;2.70;;;1.00;;
21729;SDS011;11027;51.030;13.812;2023-03-23T10:05:41;1.83;;;1.05;;
21729;SDS011;11027;51.030;13.812;2023-03-23T10:08:17;1.80;;;0.90;;
21729;SDS011;11027;51.030;13.812;2023-03-23T10:13:25;4.20;;;2.13;;
21729;SDS011;11027;51.030;13.812;2023-03-23T10:16:20;2.40;;;1.08;;
21729;SDS011;11027;51.030;13.812;2023-03-23T10:18:52;1.73;;;1.02;;
21729;SDS011;11027;51.030;13.812;2023-03-23T10:21:25;1.50;;;0.80;;
21729;SDS011;11027;51.030;13.812;2023-03-23T10:24:04;0.85;;;0.68;;
21729;SDS011;11027;51.030;13.812;2023-03-23T10:26:53;1.60;;;0.98;;
21729;SDS011;11027;51.030;13.812;2023-03-23T10:29:42;1.90;;;0.70;;
21729;SDS011;11027;51.030;13.812;2023-03-23T10:32:15;0.98;;;0.70;;
21729;SDS011;11027;51.030;13.812;2023-03-23T10:34:47;1.80;;;0.82;;
21729;SDS011;11027;51.030;13.812;2023-03-23T10:37:23;0.88;;;0.80;;
21729;SDS011;11027;51.030;13.812;2023-03-23T10:39:53;1.55;;;0.75;;
21729;SDS011;11027;51.030;13.812;2023-03-23T10:42:30;6.72;;;0.90;;
21729;SDS011;11027;51.030;13.812;2023-03-23T10:44:59;1.33;;;0.77;;
21729;SDS011;11027;51.030;13.812;2023-03-23T10:47:33;1.05;;;0.80;;
21729;SDS011;11027;51.030;13.812;2023-03-23T10:50:04;1.15;;;1.00;;
21729;SDS011;11027;51.030;13.812;2023-03-23T10:52:37;2.45;;;0.93;;
21729;SDS011;11027;51.030;13.812;2023-03-23T10:57:34;1.05;;;0.75;;
21729;SDS011;11027;51.030;13.812;2023-03-23T11:02:32;8.20;;;0.90;;
21729;SDS011;11027;51.030;13.812;2023-03-23T11:05:03;0.93;;;0.70;;
21729;SDS011;11027;51.030;13.812;2023-03-23T11:07:38;1.13;;;0.50;;
21729;SDS011;11027;51.030;13.812;2023-03-23T11:10:06;1.48;;;0.60;;
21729;SDS011;11027;51.030;13.812;2023-03-23T11:12:45;1.13;;;0.83;;
21729;SDS011;11027;51.030;13.812;2023-03-23T11:15:16;1.50;;;0.70;;
21729;SDS011;11027;51.030;13.812;2023-03-23T11:17:56;0.98;;;0.70;;
21729;SDS011;11027;51.030;13.812;2023-03-23T11:20:33;1.02;;;0.80;;
21729;SDS011;11027;51.030;13.812;2023-03-23T11:23:01;1.73;;;1.05;;
21729;SDS011;11027;51.030;13.812;2023-03-23T11:25:59;1.33;;;0.63;;
21729;SDS011;11027;51.030;13.812;2023-03-23T11:28:32;2.97;;;0.95;;
21729;SDS011;11027;51.030;13.812;2023-03-23T11:31:01;1.55;;;0.68;;
21729;SDS011;11027;51.030;13.812;2023-03-23T11:33:30;1.50;;;0.68;;
21729;SDS011;11027;51.030;13.812;2023-03-23T11:36:01;1.20;;;0.90;;
21729;SDS011;11027;51.030;13.812;2023-03-23T11:38:26;1.15;;;0.60;;
21729;SDS011;11027;51.030;13.812;2023-03-23T11:40:52;1.25;;;0.63;;
21729;SDS011;11027;51.030;13.812;2023-03-23T11:43:19;1.00;;;0.55;;
21729;SDS011;11027;51.030;13.812;2023-03-23T11:48:40;3.53;;;0.55;;
21729;SDS011;11027;51.030;13.812;2023-03-23T11:51:18;2.47;;;0.80;;
21729;SDS011;11027;51.030;13.812;2023-03-23T11:56:27;1.75;;;0.80;;
21729;SDS011;11027;51.030;13.812;2023-03-23T11:58:56;1.30;;;0.57;;
21729;SDS011;11027;51.030;13.812;2023-03-23T12:07:01;1.65;;;0.63;;
21729;SDS011;11027;51.030;13.812;2023-03-23T12:09:47;2.60;;;0.63;;
21729;SDS011;11027;51.030;13.812;2023-03-23T12:12:25;0.77;;;0.40;;
21729;SDS011;11027;51.030;13.812;2023-03-23T12:15:16;1.85;;;0.50;;
21729;SDS011;11027;51.030;13.812;2023-03-23T12:23:01;1.92;;;0.60;;
21729;SDS011;11027;51.030;13.812;2023-03-23T12:25:48;1.08;;;0.60;;
21729;SDS011;11027;51.030;13.812;2023-03-23T12:31:05;3.60;;;0.70;;
21729;SDS011;11027;51.030;13.812;2023-03-23T12:42:34;1.95;;;0.60;;
21729;SDS011;11027;51.030;13.812;2023-03-23T12:47:58;1.10;;;0.70;;
21729;SDS011;11027;51.030;13.812;2023-03-23T12:50:35;1.33;;;0.47;;
21729;SDS011;11027;51.030;13.812;2023-03-23T12:53:48;0.77;;;0.50;;
21729;SDS011;11027;51.030;13.812;2023-03-23T12:56:21;0.82;;;0.63;;
21729;SDS011;11027;51.030;13.812;2023-03-23T12:59:01;3.08;;;0.50;;
21729;SDS011;11027;51.030;13.812;2023-03-23T13:01:32;1.10;;;0.50;;
21729;SDS011;11027;51.030;13.812;2023-03-23T13:09:07;1.90;;;0.70;;
21729;SDS011;11027;51.030;13.812;2023-03-23T13:11:40;1.23;;;0.50;;
21729;SDS011;11027;51.030;13.812;2023-03-23T13:17:15;1.55;;;0.60;;
21729;SDS011;11027;51.030;13.812;2023-03-23T13:28:17;1.90;;;0.88;;
21729;SDS011;11027;51.030;13.812;2023-03-23T13:30:54;1.02;;;0.90;;
21729;SDS011;11027;51.030;13.812;2023-03-23T13:33:21;2.63;;;0.80;;
21729;SDS011;11027;51.030;13.812;2023-03-23T13:35:48;3.22;;;0.60;;
21729;SDS011;11027;51.030;13.812;2023-03-23T13:38:23;1.00;;;0.60;;
21729;SDS011;11027;51.030;13.812;2023-03-23T13:40:51;1.48;;;0.70;;
21729;SDS011;11027;51.030;13.812;2023-03-23T13:43:25;1.20;;;0.60;;
21729;SDS011;11027;51.030;13.812;2023-03-23T13:45:55;1.50;;;0.90;;
21729;SDS011;11027;51.030;13.812;2023-03-23T13:48:49;1.95;;;0.80;;
21729;SDS011;11027;51.030;13.812;2023-03-23T13:51:34;3.40;;;0.93;;
21729;SDS011;11027;51.030;13.812;2023-03-23T13:59:06;1.05;;;0.70;;
21729;SDS011;11027;51.030;13.812;2023-03-23T14:01:53;0.98;;;0.60;;
21729;SDS011;11027;51.030;13.812;2023-03-23T14:04:20;1.13;;;0.70;;
21729;SDS011;11027;51.030;13.812;2023-03-23T14:06:47;1.17;;;0.60;;
21729;SDS011;11027;51.030;13.812;2023-03-23T14:11:56;1.73;;;0.80;;
21729;SDS011;11027;51.030;13.812;2023-03-23T14:14:29;1.90;;;0.75;;
21729;SDS011;11027;51.030;13.812;2023-03-23T14:19:47;2.55;;;1.10;;
21729;SDS011;11027;51.030;13.812;2023-03-23T14:22:21;0.75;;;0.55;;
21729;SDS011;11027;51.030;13.812;2023-03-23T14:24:49;1.15;;;0.63;;
21729;SDS011;11027;51.030;13.812;2023-03-23T14:29:42;1.23;;;0.60;;
21729;SDS011;11027;51.030;13.812;2023-03-23T14:32:12;3.67;;;0.90;;
21729;SDS011;11027;51.030;13.812;2023-03-23T14:34:41;1.48;;;0.80;;
21729;SDS011;11027;51.030;13.812;2023-03-23T14:37:09;1.27;;;0.50;;
21729;SDS011;11027;51.030;13.812;2023-03-23T14:39:37;2.33;;;1.20;;
21729;SDS011;11027;51.030;13.812;2023-03-23T14:42:04;1.88;;;0.60;;
21729;SDS011;11027;51.030;13.812;2023-03-23T14:44:34;2.17;;;0.93;;
21729;SDS011;11027;51.030;13.812;2023-03-23T14:47:03;0.98;;;0.60;;
21729;SDS011;11027;51.030;13.812;2023-03-23T14:49:36;1.05;;;0.70;;
21729;SDS011;11027;51.030;13.812;2023-03-23T14:52:09;0.82;;;0.65;;
21729;SDS011;11027;51.030;13.812;2023-03-23T14:54:42;2.22;;;0.98;;
21729;SDS011;11027;51.030;13.812;2023-03-23T14:57:19;1.10;;;0.60;;
21729;SDS011;11027;51.030;13.812;2023-03-23T14:59:45;0.80;;;0.70;;
21729;SDS011;11027;51.030;13.812;2023-03-23T15:02:28;2.35;;;0.70;;
21729;SDS011;11027;51.030;13.812;2023-03-23T15:04:59;3.00;;;0.82;;
21729;SDS011;11027;51.030;13.812;2023-03-23T15:07:32;1.15;;;0.60;;
21729;SDS011;11027;51.030;13.812;2023-03-23T15:09:59;1.55;;;0.70;;
21729;SDS011;11027;51.030;13.812;2023-03-23T15:12:27;2.67;;;0.90;;
21729;SDS011;11027;51.030;13.812;2023-03-23T15:14:56;1.33;;;0.70;;
21729;SDS011;11027;51.030;13.812;2023-03-23T15:17:24;1.80;;;0.90;;
21729;SDS011;11027;51.030;13.812;2023-03-23T15:19:53;2.10;;;1.20;;
21729;SDS011;11027;51.030;13.812;2023-03-23T15:22:22;3.00;;;0.90;;
21729;SDS011;11027;51.030;13.812;2023-03-23T15:24:47;1.52;;;0.88;;
21729;SDS011;11027;51.030;13.812;2023-03-23T15:27:23;4.20;;;0.70;;
21729;SDS011;11027;51.030;13.812;2023-03-23T15:29:52;2.00;;;0.63;;
21729;SDS011;11027;51.030;13.812;2023-03-23T15:32:29;2.42;;;0.70;;
21729;SDS011;11027;51.030;13.812;2023-03-23T15:34:57;0.47;;;0.47;;
21729;SDS011;11027;51.030;13.812;2023-03-23T15:37:29;0.90;;;0.70;;
21729;SDS011;11027;51.030;13.812;2023-03-23T15:39:56;1.90;;;0.70;;
21729;SDS011;11027;51.030;13.812;2023-03-23T15:42:30;2.55;;;0.70;;
21729;SDS011;11027;51.030;13.812;2023-03-23T15:45:12;1.17;;;0.70;;
21729;SDS011;11027;51.030;13.812;2023-03-23T15:47:51;0.35;;;0.35;;
21729;SDS011;11027;51.030;13.812;2023-03-23T15:50:17;1.27;;;0.70;;
21729;SDS011;11027;51.030;13.812;2023-03-23T15:52:46;4.70;;;2.45;;
21729;SDS011;11027;51.030;13.812;2023-03-23T15:55:23;2.88;;;0.90;;
21729;SDS011;11027;51.030;13.812;2023-03-23T15:57:49;2.28;;;0.65;;
21729;SDS011;11027;51.030;13.812;2023-03-23T16:00:16;1.02;;;0.45;;
21729;SDS011;11027;51.030;13.812;2023-03-23T16:02:44;1.73;;;0.75;;
21729;SDS011;11027;51.030;13.812;2023-03-23T16:05:11;1.50;;;0.88;;
21729;SDS011;11027;51.030;13.812;2023-03-23T16:07:37;1.38;;;0.80;;
21729;SDS011;11027;51.030;13.812;2023-03-23T16:10:03;0.85;;;0.57;;